Time;durP1;ratioP1;P1;durP2;ratioP2;P2;SDS_P1;SDS_P2;PMS_P1;PMS_P2;Temp;Humidity;BMP_temperature;BMP_pressure;BME280_temperature;BME280_humidity;BME280_pressure;Samples;Min_cycle;Max_cycle;Signal;HPM_P1;HPM_P2
2021/04/08 00:01:28;;;;;;;18.65;11.80;;;2.70;99.90;;;;;;5015437;28;20026;-75
2021/04/08 00:03:53;;;;;;;24.42;14.40;;;2.80;99.90;;;;;;5013530;28;20029;-74
2021/04/08 00:06:19;;;;;;;23.25;13.30;;;2.80;99.90;;;;;;5019739;28;20029;-76
2021/04/08 00:08:45;;;;;;;18.30;11.35;;;2.80;99.90;;;;;;5016801;28;20025;-77
2021/04/08 00:11:11;;;;;;;17.48;10.68;;;2.90;99.90;;;;;;5014998;28;20120;-75
2021/04/08 00:13:37;;;;;;;29.42;19.08;;;2.80;99.90;;;;;;5017026;28;20018;-75
2021/04/08 00:16:04;;;;;;;17.10;11.07;;;2.70;99.90;;;;;;5018556;28;20030;-75
2021/04/08 00:18:30;;;;;;;25.60;16.02;;;2.70;99.90;;;;;;5019163;28;20080;-77
2021/04/08 00:20:57;;;;;;;22.05;14.75;;;2.80;99.90;;;;;;5018094;28;20025;-77
2021/04/08 00:23:23;;;;;;;39.55;24.23;;;2.70;99.90;;;;;;5018307;28;20026;-74
2021/04/08 00:25:49;;;;;;;43.97;26.70;;;2.70;99.90;;;;;;5018309;28;20033;-73
2021/04/08 00:28:15;;;;;;;39.55;23.20;;;2.60;99.90;;;;;;5016435;28;20117;-77
2021/04/08 00:30:45;;;;;;;36.45;22.73;;;2.60;99.90;;;;;;5019343;28;20041;-78
2021/04/08 00:33:16;;;;;;;24.75;15.25;;;2.60;99.90;;;;;;5019527;28;20033;-76
2021/04/08 00:35:42;;;;;;;27.27;17.05;;;2.70;99.90;;;;;;5017660;28;20380;-74
2021/04/08 00:38:09;;;;;;;22.70;14.02;;;2.70;99.90;;;;;;5018117;28;20018;-75
2021/04/08 00:40:35;;;;;;;22.40;15.25;;;2.70;99.90;;;;;;5015755;28;20022;-73
2021/04/08 00:43:01;;;;;;;35.28;22.50;;;2.70;99.90;;;;;;5015935;28;20026;-77
2021/04/08 00:45:27;;;;;;;31.23;19.10;;;2.60;99.90;;;;;;5017818;28;20027;-73
2021/04/08 00:47:53;;;;;;;31.27;17.70;;;2.40;99.90;;;;;;5017059;28;20399;-74
2021/04/08 00:50:20;;;;;;;23.10;13.93;;;2.40;99.90;;;;;;5012562;28;20037;-76
2021/04/08 00:52:54;;;;;;;21.70;13.65;;;2.40;99.90;;;;;;5018810;28;20105;-75
2021/04/08 00:55:22;;;;;;;20.60;12.25;;;2.40;99.90;;;;;;5018471;28;20064;-74
2021/04/08 00:57:49;;;;;;;23.10;14.32;;;2.30;99.90;;;;;;5019569;28;20459;-74
2021/04/08 01:00:16;;;;;;;24.30;13.40;;;2.20;99.90;;;;;;5019001;28;20071;-74
2021/04/08 01:02:42;;;;;;;24.73;13.57;;;2.30;99.90;;;;;;5017659;28;20487;-75
2021/04/08 01:05:08;;;;;;;25.88;15.65;;;2.30;99.90;;;;;;5021742;28;20464;-76
2021/04/08 01:07:37;;;;;;;24.77;15.68;;;2.30;99.90;;;;;;5023384;28;20022;-75
2021/04/08 01:10:06;;;;;;;29.83;19.05;;;2.20;99.90;;;;;;5023958;28;20034;-76
2021/04/08 01:12:32;;;;;;;31.35;17.55;;;2.30;99.90;;;;;;5023152;28;20496;-75
2021/04/08 01:14:58;;;;;;;27.52;15.00;;;2.20;99.90;;;;;;5021016;28;20021;-76
2021/04/08 01:17:33;;;;;;;20.90;12.63;;;2.20;99.90;;;;;;5019393;28;20387;-76
2021/04/08 01:20:34;;;;;;;23.25;13.35;;;2.20;99.90;;;;;;5020489;28;20033;-75
2021/04/08 01:23:15;;;;;;;24.98;14.38;;;2.20;99.90;;;;;;4960788;29;20497;-75
2021/04/08 01:26:05;;;;;;;23.65;13.75;;;2.20;99.90;;;;;;5014978;28;20088;-77
2021/04/08 01:28:35;;;;;;;26.15;14.63;;;2.20;99.90;;;;;;5019684;28;20076;-78
2021/04/08 01:31:10;;;;;;;24.90;14.10;;;2.20;99.90;;;;;;5020791;28;20053;-78
2021/04/08 01:33:57;;;;;;;25.67;13.23;;;2.20;99.90;;;;;;5020516;28;20022;-75
2021/04/08 01:36:27;;;;;;;24.15;14.30;;;2.20;99.90;;;;;;5021667;28;20034;-76
2021/04/08 01:39:08;;;;;;;23.92;15.60;;;2.10;99.90;;;;;;5021783;28;20506;-76
2021/04/08 01:41:37;;;;;;;26.08;15.90;;;2.00;99.90;;;;;;5022631;28;20034;-76
2021/04/08 01:44:05;;;;;;;25.90;17.90;;;2.10;99.90;;;;;;5022883;28;20079;-77
2021/04/08 01:46:35;;;;;;;21.13;14.25;;;2.00;99.90;;;;;;5020341;28;20440;-76
2021/04/08 01:49:02;;;;;;;20.67;12.65;;;2.00;99.90;;;;;;5019165;28;20033;-76
2021/04/08 01:51:30;;;;;;;18.52;10.82;;;1.90;99.90;;;;;;5021093;28;20375;-77
2021/04/08 01:54:02;;;;;;;16.60;11.07;;;1.80;99.90;;;;;;5020684;28;20375;-74
2021/04/08 01:56:32;;;;;;;22.63;13.32;;;1.60;99.90;;;;;;5020158;28;20037;-76
2021/04/08 01:59:00;;;;;;;18.95;12.45;;;1.60;99.90;;;;;;5020551;28;20045;-77
2021/04/08 02:01:26;;;;;;;15.02;10.68;;;1.70;99.90;;;;;;5020839;28;20026;-77
2021/04/08 02:03:53;;;;;;;20.85;13.68;;;1.60;99.90;;;;;;5021764;28;20044;-74
2021/04/08 02:06:23;;;;;;;20.55;12.88;;;1.60;99.90;;;;;;5019722;28;20088;-78
2021/04/08 02:08:51;;;;;;;22.58;14.05;;;1.60;99.90;;;;;;5019462;28;20107;-77
2021/04/08 02:11:18;;;;;;;24.27;14.25;;;1.70;99.90;;;;;;5017333;28;20116;-74
2021/04/08 02:13:47;;;;;;;30.13;17.48;;;1.80;99.90;;;;;;5019211;28;20372;-78
2021/04/08 02:16:14;;;;;;;32.55;19.58;;;1.80;99.90;;;;;;5020069;28;20049;-78
2021/04/08 02:18:42;;;;;;;28.02;18.35;;;1.70;99.90;;;;;;5019302;28;20022;-77
2021/04/08 02:21:08;;;;;;;22.80;14.70;;;1.80;99.90;;;;;;5019101;28;20049;-78
2021/04/08 02:23:39;;;;;;;24.98;16.20;;;1.70;99.90;;;;;;5018384;28;20029;-78
2021/04/08 02:26:08;;;;;;;23.95;14.85;;;1.70;99.90;;;;;;5020292;28;20033;-75
2021/04/08 02:28:36;;;;;;;26.33;15.77;;;1.60;99.90;;;;;;5019092;28;20361;-78
2021/04/08 02:31:03;;;;;;;28.25;16.50;;;1.60;99.90;;;;;;5022076;28;20017;-79
2021/04/08 02:33:30;;;;;;;25.10;15.88;;;1.60;99.90;;;;;;5019499;28;20487;-77
2021/04/08 02:35:58;;;;;;;26.52;16.05;;;1.70;99.90;;;;;;5020620;28;20029;-78
2021/04/08 02:38:27;;;;;;;28.15;16.25;;;1.70;99.90;;;;;;5020817;28;20416;-76
2021/04/08 02:40:53;;;;;;;22.70;13.77;;;1.60;99.90;;;;;;5022098;28;20469;-78
2021/04/08 02:43:20;;;;;;;27.15;17.38;;;1.60;99.90;;;;;;5021960;28;20021;-75
2021/04/08 02:45:46;;;;;;;28.10;16.70;;;1.60;99.90;;;;;;5021678;28;20112;-78
2021/04/08 02:48:15;;;;;;;27.38;17.77;;;1.60;99.90;;;;;;5022798;28;20057;-78
2021/04/08 02:50:44;;;;;;;38.28;25.00;;;1.70;99.90;;;;;;5021102;28;20541;-78
2021/04/08 02:53:31;;;;;;;43.88;29.50;;;1.80;99.90;;;;;;5023381;28;20108;-78
2021/04/08 02:56:18;;;;;;;54.38;34.85;;;1.70;99.90;;;;;;5021295;28;20060;-76
2021/04/08 02:58:46;;;;;;;45.45;26.98;;;1.60;99.90;;;;;;5020390;28;20026;-75
2021/04/08 03:01:15;;;;;;;55.25;29.92;;;1.60;99.90;;;;;;5019606;28;20014;-76
2021/04/08 03:04:00;;;;;;;42.55;24.15;;;1.60;99.90;;;;;;5020081;28;20018;-78
2021/04/08 03:06:27;;;;;;;30.75;18.60;;;1.60;99.90;;;;;;5019489;28;20109;-78
2021/04/08 03:08:55;;;;;;;32.78;17.98;;;1.60;99.90;;;;;;5018715;28;20037;-78
2021/04/08 03:11:34;;;;;;;28.58;16.70;;;1.80;99.90;;;;;;5018892;28;20026;-78
2021/04/08 03:14:10;;;;;;;32.20;18.80;;;1.80;99.90;;;;;;5018920;28;20029;-78
2021/04/08 03:16:42;;;;;;;22.75;14.07;;;1.80;99.90;;;;;;5020211;28;20110;-78
2021/04/08 03:19:15;;;;;;;23.75;14.40;;;1.70;99.90;;;;;;5019188;28;20026;-76
2021/04/08 03:21:42;;;;;;;21.58;12.80;;;1.50;99.90;;;;;;5019674;28;20413;-76
2021/04/08 03:24:10;;;;;;;22.50;13.20;;;1.50;99.90;;;;;;5019277;28;20005;-77
2021/04/08 03:26:36;;;;;;;17.95;12.02;;;1.50;99.90;;;;;;5017778;28;20026;-79
2021/04/08 03:29:02;;;;;;;28.90;17.52;;;1.50;99.90;;;;;;5018722;28;20341;-77
2021/04/08 03:31:29;;;;;;;34.90;21.30;;;1.50;99.90;;;;;;5019444;28;20022;-79
2021/04/08 03:33:57;;;;;;;43.65;24.85;;;1.50;99.90;;;;;;5018689;28;20030;-78
2021/04/08 03:36:24;;;;;;;46.63;25.48;;;1.50;99.90;;;;;;5018214;28;20069;-76
2021/04/08 03:38:50;;;;;;;43.88;26.65;;;1.40;99.90;;;;;;5019246;28;20018;-75
2021/04/08 03:41:18;;;;;;;50.05;29.67;;;1.40;99.90;;;;;;5018262;28;20029;-75
2021/04/08 03:43:45;;;;;;;48.75;28.52;;;1.30;99.90;;;;;;5019804;28;20022;-76
2021/04/08 03:46:12;;;;;;;53.80;28.92;;;1.30;99.90;;;;;;5015942;28;20021;-77
2021/04/08 03:48:39;;;;;;;53.72;25.45;;;1.30;99.90;;;;;;5016437;28;20026;-78
2021/04/08 03:51:06;;;;;;;62.25;30.23;;;1.30;99.90;;;;;;5018263;28;20049;-77
2021/04/08 03:53:34;;;;;;;77.63;39.10;;;1.20;99.90;;;;;;5017755;28;20030;-76
2021/04/08 03:56:02;;;;;;;92.90;43.63;;;1.20;99.90;;;;;;5017488;28;20539;-78
2021/04/08 03:58:28;;;;;;;97.93;44.30;;;1.30;99.90;;;;;;5017278;28;20483;-76
2021/04/08 04:00:58;;;;;;;103.45;46.28;;;1.30;99.90;;;;;;5018006;28;20084;-79
2021/04/08 04:03:24;;;;;;;91.28;40.60;;;1.30;99.90;;;;;;5017187;28;20034;-74
2021/04/08 04:05:51;;;;;;;85.93;41.33;;;1.30;99.90;;;;;;5018292;28;20028;-79
2021/04/08 04:08:17;;;;;;;82.22;42.20;;;1.30;99.90;;;;;;5016811;28;20018;-79
2021/04/08 04:10:43;;;;;;;87.00;46.10;;;1.30;99.90;;;;;;5018105;28;20069;-75
2021/04/08 04:13:12;;;;;;;66.32;37.75;;;1.30;99.90;;;;;;5016358;28;20553;-77
2021/04/08 04:15:39;;;;;;;72.95;42.75;;;1.30;99.90;;;;;;5018945;28;20518;-78
2021/04/08 04:18:06;;;;;;;78.72;48.67;;;1.30;99.90;;;;;;5019457;28;20018;-77
2021/04/08 04:20:36;;;;;;;65.50;41.40;;;1.40;99.90;;;;;;5019620;28;20017;-77
2021/04/08 04:23:03;;;;;;;56.33;35.22;;;1.50;99.90;;;;;;5017763;28;20053;-78
2021/04/08 04:25:30;;;;;;;69.05;37.67;;;1.40;99.90;;;;;;5018533;28;20037;-79
2021/04/08 04:27:56;;;;;;;93.13;47.72;;;1.40;99.90;;;;;;5017166;28;20056;-78
2021/04/08 04:30:22;;;;;;;66.20;34.67;;;1.40;99.90;;;;;;5020373;28;20026;-74
2021/04/08 04:32:48;;;;;;;48.22;27.20;;;1.40;99.90;;;;;;5017783;28;20026;-77
2021/04/08 04:35:17;;;;;;;70.55;36.00;;;1.50;99.90;;;;;;5018923;28;20030;-76
2021/04/08 04:37:42;;;;;;;124.03;44.30;;;1.40;99.90;;;;;;5018582;28;20029;-79
2021/04/08 04:40:09;;;;;;;74.30;32.60;;;1.50;99.90;;;;;;5021327;28;20026;-79
2021/04/08 04:42:35;;;;;;;48.20;26.10;;;1.50;99.90;;;;;;5020174;28;20105;-75
2021/04/08 04:45:03;;;;;;;47.75;27.77;;;1.50;99.90;;;;;;5021442;28;20029;-75
2021/04/08 04:47:29;;;;;;;53.75;33.25;;;1.60;99.90;;;;;;5019360;28;20100;-78
2021/04/08 04:49:55;;;;;;;62.85;35.40;;;1.70;99.90;;;;;;5022928;28;20030;-76
2021/04/08 04:52:21;;;;;;;83.53;44.55;;;1.60;99.90;;;;;;5018780;28;20049;-76
2021/04/08 04:54:47;;;;;;;71.65;41.45;;;1.70;99.90;;;;;;5020843;28;20424;-77
2021/04/08 04:57:13;;;;;;;72.03;40.53;;;1.70;99.90;;;;;;5020361;28;20073;-77
2021/04/08 04:59:39;;;;;;;74.85;41.58;;;1.60;99.90;;;;;;5019318;28;20030;-75
2021/04/08 05:02:05;;;;;;;80.15;40.75;;;1.70;99.90;;;;;;5020976;28;20129;-75
2021/04/08 05:04:31;;;;;;;53.20;27.23;;;1.80;99.90;;;;;;5023538;28;20064;-77
2021/04/08 05:06:57;;;;;;;83.30;42.40;;;1.90;99.90;;;;;;5021660;28;20021;-76
2021/04/08 05:09:23;;;;;;;71.38;36.95;;;1.90;99.90;;;;;;5022057;28;20014;-77
2021/04/08 05:11:49;;;;;;;73.03;37.42;;;2.00;99.90;;;;;;5021742;28;20006;-77
2021/04/08 05:14:15;;;;;;;84.57;42.10;;;2.10;99.90;;;;;;5020554;28;20084;-78
2021/04/08 05:16:41;;;;;;;73.47;39.95;;;2.20;99.90;;;;;;5017993;28;20037;-78
2021/04/08 05:19:07;;;;;;;65.97;34.50;;;2.30;99.90;;;;;;5019708;28;20029;-77
2021/04/08 05:21:33;;;;;;;57.47;31.10;;;2.30;99.60;;;;;;5020012;28;20395;-76
2021/04/08 05:23:58;;;;;;;47.00;24.80;;;2.40;99.60;;;;;;5018555;28;20064;-76
2021/04/08 05:26:24;;;;;;;47.17;26.75;;;2.40;99.50;;;;;;5020225;28;20030;-77
2021/04/08 05:28:50;;;;;;;57.50;30.45;;;2.50;99.60;;;;;;5019903;28;20372;-75
2021/04/08 05:31:16;;;;;;;50.10;26.88;;;2.60;99.40;;;;;;5019937;28;20467;-75
2021/04/08 05:33:42;;;;;;;38.78;23.90;;;2.60;99.30;;;;;;5021816;28;20021;-78
2021/04/08 05:36:08;;;;;;;43.72;25.10;;;2.70;99.70;;;;;;5020523;28;20108;-77
2021/04/08 05:38:34;;;;;;;46.38;25.88;;;2.80;99.90;;;;;;5020745;28;20042;-77
2021/04/08 05:41:00;;;;;;;55.95;29.45;;;2.80;99.60;;;;;;5020093;28;20026;-75
2021/04/08 05:43:26;;;;;;;51.72;29.38;;;2.90;99.50;;;;;;5021453;28;20020;-75
2021/04/08 05:45:51;;;;;;;60.67;34.85;;;3.00;99.30;;;;;;5019773;28;20026;-75
2021/04/08 05:48:17;;;;;;;44.30;26.95;;;3.20;99.90;;;;;;5017331;28;20073;-76
2021/04/08 05:50:43;;;;;;;48.03;28.20;;;3.10;99.40;;;;;;5020100;28;20045;-78
2021/04/08 05:53:09;;;;;;;42.40;25.05;;;3.20;99.10;;;;;;5020289;28;20029;-75
2021/04/08 05:55:35;;;;;;;41.08;24.30;;;3.20;99.20;;;;;;5018049;28;20083;-75
2021/04/08 05:58:01;;;;;;;112.63;34.70;;;3.20;99.30;;;;;;5021202;28;20030;-77
2021/04/08 06:00:27;;;;;;;65.05;28.55;;;3.30;99.50;;;;;;5017796;28;20030;-75
2021/04/08 06:02:57;;;;;;;53.05;32.42;;;3.60;99.90;;;;;;5015150;28;20408;-75
2021/04/08 06:05:23;;;;;;;57.75;35.10;;;;;;;;;;5011026;28;20153;-77
2021/04/08 06:07:49;;;;;;;55.58;35.05;;;3.70;99.90;;;;;;5014220;28;20490;-75
2021/04/08 06:10:15;;;;;;;52.08;30.55;;;;;;;;;;5015821;28;20030;-77
2021/04/08 06:12:42;;;;;;;46.30;28.95;;;3.90;99.90;;;;;;5013654;28;20476;-75
2021/04/08 06:15:09;;;;;;;45.00;27.60;;;;;;;;;;5017178;28;20061;-76
2021/04/08 06:17:35;;;;;;;36.58;22.17;;;4.00;97.70;;;;;;5017274;28;20502;-78
2021/04/08 06:20:01;;;;;;;31.38;18.77;;;4.10;98.20;;;;;;5017878;28;20028;-77
2021/04/08 06:22:27;;;;;;;30.77;17.67;;;4.10;97.90;;;;;;5018342;28;20018;-79
2021/04/08 06:24:53;;;;;;;27.10;17.88;;;4.20;97.40;;;;;;5018939;28;20033;-75
2021/04/08 06:27:19;;;;;;;26.88;15.90;;;4.30;97.90;;;;;;5016088;28;20029;-77
2021/04/08 06:29:45;;;;;;;27.80;18.58;;;4.30;96.70;;;;;;5017619;28;20022;-76
2021/04/08 06:32:11;;;;;;;28.50;17.92;;;4.40;97.00;;;;;;5017751;28;20030;-77
2021/04/08 06:34:36;;;;;;;36.67;19.40;;;4.40;97.50;;;;;;5018148;28;20356;-76
2021/04/08 06:37:03;;;;;;;29.88;17.88;;;;;;;;;;5019616;28;20102;-78
2021/04/08 06:39:30;;;;;;;40.22;22.63;;;;;;;;;;5016033;28;20072;-75
2021/04/08 06:41:56;;;;;;;31.88;19.38;;;;;;;;;;5019297;28;20021;-78
2021/04/08 06:44:26;;;;;;;31.55;19.98;;;4.80;99.90;;;;;;5017444;28;20479;-74
2021/04/08 06:46:56;;;;;;;32.95;20.40;;;4.90;99.90;;;;;;5017913;28;20445;-72
2021/04/08 06:49:28;;;;;;;65.05;34.13;;;4.80;95.70;;;;;;5017343;28;20025;-74
2021/04/08 06:51:58;;;;;;;36.00;23.75;;;;;;;;;;5017944;28;20508;-76
2021/04/08 06:54:25;;;;;;;19.60;12.40;;;;;;;;;;5016815;28;20392;-74
2021/04/08 06:56:54;;;;;;;32.97;24.40;;;;;;;;;;5019093;28;20052;-75
2021/04/08 06:59:20;;;;;;;27.55;18.98;;;5.00;94.80;;;;;;5017064;28;20077;-75
2021/04/08 07:01:47;;;;;;;30.48;22.85;;;5.10;93.70;;;;;;5016748;28;20014;-75
2021/04/08 07:04:14;;;;;;;20.98;14.07;;;5.10;93.80;;;;;;5016572;28;20045;-77
2021/04/08 07:06:41;;;;;;;23.20;16.67;;;;;;;;;;5016312;28;20048;-74
2021/04/08 07:09:09;;;;;;;25.23;13.93;;;5.40;93.90;;;;;;5015404;28;20371;-78
2021/04/08 07:11:36;;;;;;;28.70;15.95;;;;;;;;;;5017375;28;20033;-76
2021/04/08 07:14:03;;;;;;;24.73;18.17;;;5.70;91.30;;;;;;5017878;28;20006;-78
2021/04/08 07:16:31;;;;;;;22.48;11.90;;;5.90;92.00;;;;;;5020878;28;20029;-77
2021/04/08 07:18:58;;;;;;;19.33;12.85;;;6.00;91.70;;;;;;5017880;28;20049;-78
2021/04/08 07:21:36;;;;;;;19.40;14.57;;;6.00;91.30;;;;;;5015745;28;20025;-76
2021/04/08 07:24:25;;;;;;;14.65;9.30;;;6.10;90.60;;;;;;5015011;28;20066;-76
2021/04/08 07:26:57;;;;;;;39.95;24.10;;;6.00;90.10;;;;;;5015867;28;20057;-76
2021/04/08 07:29:44;;;;;;;33.80;20.30;;;6.10;90.40;;;;;;5017337;28;20026;-76
2021/04/08 07:32:29;;;;;;;20.20;12.00;;;6.20;90.00;;;;;;5015669;28;20076;-75
2021/04/08 07:35:17;;;;;;;133.90;77.18;;;6.30;91.00;;;;;;5024363;28;20033;-74
2021/04/08 07:37:54;;;;;;;29.60;20.73;;;6.40;90.00;;;;;;5021319;28;20026;-76
2021/04/08 07:40:23;;;;;;;60.17;46.20;;;6.50;91.20;;;;;;5020744;28;20018;-73
2021/04/08 07:42:49;;;;;;;73.85;40.47;;;6.80;90.60;;;;;;5023964;28;20344;-76
2021/04/08 07:45:33;;;;;;;41.15;25.50;;;6.90;88.70;;;;;;5025292;28;20096;-77
2021/04/08 07:48:05;;;;;;;29.17;17.35;;;7.10;90.70;;;;;;5027513;28;20492;-80
2021/04/08 07:50:32;;;;;;;26.52;15.40;;;;;;;;;;5036987;28;20506;-78
2021/04/08 07:52:59;;;;;;;58.00;26.23;;;7.10;86.90;;;;;;5036476;28;20061;-77
2021/04/08 07:55:28;;;;;;;42.38;18.98;;;7.20;86.10;;;;;;5038332;28;20120;-79
2021/04/08 07:57:58;;;;;;;42.78;22.50;;;7.30;83.20;;;;;;5038312;28;20030;-75
2021/04/08 08:00:35;;;;;;;49.85;24.58;;;7.20;83.20;;;;;;5038388;28;20041;-78
2021/04/08 08:03:10;;;;;;;29.33;13.93;;;7.50;87.80;;;;;;5039128;28;20032;-77
2021/04/08 08:05:39;;;;;;;21.33;12.00;;;7.70;86.50;;;;;;5037510;28;20132;-76
2021/04/08 08:08:13;;;;;;;25.77;13.63;;;7.90;82.50;;;;;;5038133;28;20030;-76
2021/04/08 08:10:42;;;;;;;13.93;8.65;;;7.90;82.70;;;;;;5036137;28;20026;-78
2021/04/08 08:13:34;;;;;;;26.60;14.05;;;8.10;83.90;;;;;;5038017;28;20029;-79
2021/04/08 08:16:02;;;;;;;21.83;12.95;;;8.30;82.60;;;;;;5038775;28;20017;-78
2021/04/08 08:18:49;;;;;;;18.67;11.10;;;8.40;81.30;;;;;;5038261;28;20025;-78
2021/04/08 08:21:18;;;;;;;14.13;9.65;;;8.60;82.60;;;;;;5040373;28;20026;-75
2021/04/08 08:23:53;;;;;;;14.65;8.85;;;8.40;81.70;;;;;;5038424;28;20048;-77
2021/04/08 08:26:32;;;;;;;19.40;11.25;;;8.70;83.50;;;;;;5038397;28;20072;-77
2021/04/08 08:29:09;;;;;;;20.27;12.30;;;8.60;78.70;;;;;;5036370;28;20021;-75
2021/04/08 08:31:52;;;;;;;18.65;11.02;;;8.90;81.70;;;;;;5038154;28;20060;-77
2021/04/08 08:34:21;;;;;;;23.00;14.23;;;9.10;82.30;;;;;;5037674;28;20521;-79
2021/04/08 08:36:51;;;;;;;22.23;13.57;;;9.40;83.80;;;;;;5036099;28;20045;-76
2021/04/08 08:39:27;;;;;;;34.88;21.00;;;9.20;73.00;;;;;;5039436;28;20032;-78
2021/04/08 08:41:56;;;;;;;17.27;10.45;;;9.40;76.90;;;;;;5037112;28;20052;-78
2021/04/08 08:44:22;;;;;;;25.42;17.10;;;9.60;71.20;;;;;;5034279;28;20510;-76
2021/04/08 08:47:08;;;;;;;24.20;12.93;;;9.80;68.00;;;;;;5035203;28;20544;-79
2021/04/08 08:49:44;;;;;;;28.45;17.17;;;9.80;66.30;;;;;;5036426;28;20018;-78
2021/04/08 08:52:11;;;;;;;37.92;22.55;;;;;;;;;;5034750;28;20083;-78
2021/04/08 08:54:38;;;;;;;17.75;11.77;;;10.30;69.90;;;;;;5025052;28;20025;-76
2021/04/08 08:57:05;;;;;;;38.35;26.13;;;10.00;65.40;;;;;;5019404;28;20041;-80
2021/04/08 08:59:32;;;;;;;15.75;10.88;;;10.10;62.80;;;;;;5023941;28;20424;-78
2021/04/08 09:01:59;;;;;;;16.25;11.00;;;10.10;59.10;;;;;;5036270;28;20022;-76
2021/04/08 09:04:26;;;;;;;10.25;7.47;;;10.70;66.20;;;;;;5036453;28;20045;-77
2021/04/08 09:06:53;;;;;;;18.35;11.52;;;10.50;60.50;;;;;;5035739;28;20061;-77
2021/04/08 09:09:22;;;;;;;15.45;9.07;;;10.60;65.10;;;;;;5036848;28;20024;-75
2021/04/08 09:11:49;;;;;;;11.90;8.30;;;10.60;61.50;;;;;;5037514;28;20471;-79
2021/04/08 09:14:15;;;;;;;21.98;13.55;;;10.70;61.70;;;;;;5036153;28;20029;-77
2021/04/08 09:16:47;;;;;;;70.65;41.28;;;10.50;60.00;;;;;;5035956;28;20033;-77
2021/04/08 09:19:13;;;;;;;43.55;25.50;;;10.80;59.20;;;;;;5035269;28;20091;-77
2021/04/08 09:21:49;;;;;;;21.00;15.50;;;10.70;56.10;;;;;;5033059;28;20025;-77
2021/04/08 09:24:31;;;;;;;33.88;23.27;;;11.10;57.70;;;;;;5029511;28;20049;-78
2021/04/08 09:26:59;;;;;;;16.13;11.60;;;11.40;55.80;;;;;;5024205;28;20061;-77
2021/04/08 09:29:39;;;;;;;10.40;6.47;;;11.40;55.90;;;;;;5025401;28;20017;-78
2021/04/08 09:32:35;;;;;;;12.15;8.73;;;11.70;55.80;;;;;;5020317;28;20034;-77
2021/04/08 09:35:07;;;;;;;9.18;5.70;;;11.60;57.40;;;;;;5020229;28;20026;-78
2021/04/08 09:37:45;;;;;;;16.50;10.80;;;11.10;54.80;;;;;;5022667;28;20029;-78
2021/04/08 09:40:23;;;;;;;7.32;4.45;;;11.00;54.30;;;;;;5021433;28;20404;-78
2021/04/08 09:42:54;;;;;;;7.18;3.78;;;10.90;54.40;;;;;;5022067;28;20018;-76
2021/04/08 09:45:20;;;;;;;10.10;6.38;;;11.10;53.40;;;;;;5020660;28;20104;-80
2021/04/08 09:47:46;;;;;;;12.43;6.47;;;11.50;57.40;;;;;;5018413;28;20129;-78
2021/04/08 09:51:01;;;;;;;14.98;9.07;;;11.60;54.30;;;;;;5018818;28;20109;-78
2021/04/08 09:53:37;;;;;;;8.27;5.43;;;11.60;55.90;;;;;;5016679;28;20030;-79
2021/04/08 09:56:07;;;;;;;25.52;16.20;;;11.00;53.80;;;;;;5018338;28;20034;-77
2021/04/08 09:58:35;;;;;;;22.15;13.90;;;11.50;53.80;;;;;;5017966;28;20058;-76
2021/04/08 10:01:07;;;;;;;24.75;16.02;;;11.80;53.70;;;;;;5016727;28;20488;-78
2021/04/08 10:03:38;;;;;;;35.22;23.73;;;12.20;55.60;;;;;;5017832;28;20057;-77
2021/04/08 10:06:19;;;;;;;38.83;22.88;;;12.00;51.00;;;;;;5017570;28;20021;-73
2021/04/08 10:08:46;;;;;;;8.90;6.22;;;12.30;50.90;;;;;;5018710;28;20022;-77
2021/04/08 10:11:14;;;;;;;66.07;38.47;;;12.40;49.30;;;;;;5022848;28;20026;-77
2021/04/08 10:13:41;;;;;;;7.00;4.10;;;12.60;52.00;;;;;;5023738;28;20025;-78
2021/04/08 10:16:13;;;;;;;14.57;8.88;;;12.40;48.00;;;;;;5019225;28;20042;-78
2021/04/08 10:18:39;;;;;;;20.02;9.25;;;12.50;50.80;;;;;;5022938;28;20026;-78
2021/04/08 10:21:12;;;;;;;11.85;6.95;;;11.80;46.40;;;;;;5021688;28;20376;-77
2021/04/08 10:23:44;;;;;;;9.43;5.60;;;12.30;49.10;;;;;;5020734;28;20010;-76
2021/04/08 10:26:20;;;;;;;26.73;13.23;;;12.60;52.00;;;;;;5021095;28;20021;-78
2021/04/08 10:28:52;;;;;;;20.90;10.73;;;12.20;51.10;;;;;;5022985;28;20113;-78
2021/04/08 10:31:24;;;;;;;13.60;6.00;;;12.50;50.90;;;;;;5017841;28;20088;-79
2021/04/08 10:34:18;;;;;;;13.00;7.65;;;12.60;47.00;;;;;;5016789;28;20026;-78
2021/04/08 10:36:54;;;;;;;9.95;5.80;;;12.50;49.30;;;;;;5019399;28;20030;-78
2021/04/08 10:39:22;;;;;;;9.18;5.70;;;12.10;48.00;;;;;;5018450;28;20032;-78
2021/04/08 10:42:02;;;;;;;8.52;5.15;;;12.00;49.80;;;;;;5027376;28;20025;-76
2021/04/08 10:44:35;;;;;;;7.03;5.13;;;11.60;52.20;;;;;;5042657;28;20029;-78
2021/04/08 10:47:10;;;;;;;10.02;5.53;;;11.20;50.60;;;;;;5036525;28;20069;-77
2021/04/08 10:49:36;;;;;;;21.40;11.18;;;10.80;49.90;;;;;;5037355;28;20013;-77
2021/04/08 10:52:08;;;;;;;11.43;6.07;;;10.90;51.40;;;;;;5036869;28;20436;-76
2021/04/08 10:54:36;;;;;;;29.33;13.25;;;11.10;52.00;;;;;;5038529;28;20487;-77
2021/04/08 10:57:03;;;;;;;7.63;4.25;;;10.90;48.60;;;;;;5036537;28;20041;-77
2021/04/08 10:59:30;;;;;;;7.60;4.60;;;10.90;52.00;;;;;;5040288;28;20002;-79
2021/04/08 11:01:58;;;;;;;9.48;5.07;;;10.90;52.60;;;;;;5044530;28;20493;-78
2021/04/08 11:04:24;;;;;;;9.63;6.28;;;10.90;50.50;;;;;;5042150;28;20402;-77
2021/04/08 11:06:51;;;;;;;14.63;7.80;;;10.80;49.80;;;;;;5038606;28;20052;-78
2021/04/08 11:09:24;;;;;;;8.70;5.28;;;;;;;;;;5038204;28;20053;-78
2021/04/08 11:11:52;;;;;;;7.15;4.90;;;11.30;51.40;;;;;;5040561;28;20537;-78
2021/04/08 11:14:25;;;;;;;4.93;3.03;;;11.60;54.30;;;;;;5039348;28;20026;-78
2021/04/08 11:16:54;;;;;;;12.88;5.57;;;12.00;49.90;;;;;;5040881;28;20026;-78
2021/04/08 11:19:21;;;;;;;4.82;3.30;;;12.80;52.20;;;;;;5036463;28;20032;-77
2021/04/08 11:21:48;;;;;;;32.33;11.32;;;13.30;49.80;;;;;;5036869;28;20372;-78
2021/04/08 11:24:15;;;;;;;151.85;57.05;;;12.70;45.00;;;;;;5039852;28;20074;-76
2021/04/08 11:26:52;;;;;;;17.58;9.23;;;12.50;47.20;;;;;;5036630;28;20028;-77
2021/04/08 11:29:22;;;;;;;34.53;17.05;;;12.10;47.10;;;;;;5036498;28;20375;-76
2021/04/08 11:32:21;;;;;;;13.60;8.45;;;11.90;49.70;;;;;;5030614;28;20022;-77
2021/04/08 11:34:52;;;;;;;27.40;13.05;;;11.70;48.90;;;;;;4961482;28;20054;-76
2021/04/08 11:37:33;;;;;;;62.83;19.15;;;11.30;47.70;;;;;;4944463;28;20363;-77
2021/04/08 11:40:00;;;;;;;18.92;9.13;;;11.20;48.50;;;;;;4961805;28;20031;-76
2021/04/08 11:42:36;;;;;;;11.52;6.88;;;11.70;51.10;;;;;;4963194;28;20030;-75
2021/04/08 11:45:26;;;;;;;22.75;14.30;;;11.60;47.90;;;;;;4959445;28;20101;-77
2021/04/08 11:48:04;;;;;;;40.30;24.35;;;11.80;51.20;;;;;;4945283;28;20118;-76
2021/04/08 11:50:31;;;;;;;28.73;23.85;;;11.70;49.30;;;;;;4961576;28;20027;-74
2021/04/08 11:53:19;;;;;;;30.00;16.67;;;12.00;47.10;;;;;;4945247;28;20038;-77
2021/04/08 11:55:45;;;;;;;32.85;16.35;;;12.20;46.70;;;;;;4960860;28;20043;-75
2021/04/08 11:58:33;;;;;;;28.27;15.80;;;12.50;47.90;;;;;;4961649;28;20026;-77
2021/04/08 12:01:10;;;;;;;42.95;26.27;;;13.10;47.20;;;;;;4959296;28;20027;-75
2021/04/08 12:03:38;;;;;;;35.70;19.38;;;13.10;46.90;;;;;;4960585;28;20039;-74
2021/04/08 12:06:20;;;;;;;21.10;11.52;;;12.30;45.50;;;;;;4963000;28;20101;-75
2021/04/08 12:08:51;;;;;;;35.83;20.83;;;12.20;49.50;;;;;;4943964;28;20031;-77
2021/04/08 12:11:19;;;;;;;44.78;24.42;;;11.60;47.30;;;;;;5029673;28;20120;-78
2021/04/08 12:14:00;;;;;;;61.08;32.92;;;11.70;47.10;;;;;;5041955;28;20424;-78
2021/04/08 12:16:30;;;;;;;91.07;51.13;;;12.40;47.60;;;;;;5041040;28;20094;-75
2021/04/08 12:18:57;;;;;;;88.03;34.90;;;12.70;45.90;;;;;;5035935;28;20041;-74
2021/04/08 12:21:25;;;;;;;57.65;26.38;;;12.50;48.30;;;;;;5017984;28;20033;-77
2021/04/08 12:23:52;;;;;;;45.00;24.15;;;12.20;47.30;;;;;;5018453;28;20025;-79
2021/04/08 12:26:34;;;;;;;52.47;29.65;;;12.10;46.30;;;;;;5016029;28;20396;-77
2021/04/08 12:29:00;;;;;;;37.35;21.65;;;11.80;45.60;;;;;;5017250;28;20472;-78
2021/04/08 12:31:26;;;;;;;43.70;24.88;;;11.50;44.40;;;;;;5016156;28;20015;-80
2021/04/08 12:33:52;;;;;;;18.55;11.00;;;11.30;44.70;;;;;;5014857;28;20420;-77
2021/04/08 12:36:18;;;;;;;44.53;27.02;;;11.20;45.70;;;;;;5018157;28;20026;-79
2021/04/08 12:38:45;;;;;;;55.25;32.30;;;11.70;48.40;;;;;;5017318;28;20058;-79
2021/04/08 12:41:12;;;;;;;14.25;9.60;;;12.20;44.80;;;;;;5017408;28;20026;-78
2021/04/08 12:43:38;;;;;;;21.70;15.35;;;12.20;45.20;;;;;;5019356;28;20545;-79
2021/04/08 12:46:04;;;;;;;82.38;52.00;;;12.10;44.50;;;;;;5015005;28;20018;-78
2021/04/08 12:48:30;;;;;;;17.30;12.25;;;11.80;46.10;;;;;;5019090;28;20519;-79
2021/04/08 12:50:58;;;;;;;50.85;30.60;;;11.30;45.20;;;;;;5017099;28;20476;-79
2021/04/08 12:53:25;;;;;;;21.40;13.73;;;11.00;46.30;;;;;;5016196;28;20033;-78
2021/04/08 12:55:53;;;;;;;17.17;10.15;;;11.00;47.90;;;;;;5016595;28;20076;-77